Port Stanley — V7EE9 — position and weather

sailwx.info

Track history (hours):
 
Tides and Currents Weather Stations Pressure Air Temp Water Temp Dewpoint Dewpoint Depression Visibility Wind Speed Wind Dir Waves Ship Positions

Port Stanley

Last reported at 2017-Jun-22 18:43 UTC. Time now 2017-Jun-28 07:16 UTC.
Position N 23°54' E 118°19'.

Length 183 m; draft 8.6 m.

Type: Ship. MMSI: 538090299.

Date/timePositionNaut miles runAvg speedWind from/ knotsBaromVisibWave heightAir tempDewpointWater temp
2017-Jun-22 18:43N 23°54' E 118°19'313.1
2017-Jun-22 18:30N 23°56' E 118°21'1413.1
2017-Jun-22 17:26N 24°05' E 118°33'613.5
2017-Jun-22 16:59N 24°09' E 118°38'1013.1
2017-Jun-22 16:14N 24°15' E 118°47'612.9
2017-Jun-22 15:47N 24°19' E 118°51'  
2017-Jun-18 01:37N 35°04' E 139°40'213.9
2017-Jun-18 01:29N 35°05' E 139°42'713.6
2017-Jun-18 01:00N 35°11' E 139°46'611.9
2017-Jun-18 00:31N 35°17' E 139°45'612.6
2017-Jun-18 00:01N 35°23' E 139°41'3 6.3
2017-Jun-17 23:31N 35°25' E 139°39'0 0.0
2017-Jun-17 22:57N 35°25' E 139°39'0 0.0
2017-Jun-17 22:27N 35°25' E 139°39'0 0.0
2017-Jun-17 21:56N 35°25' E 139°39'0 0.0
2017-Jun-17 21:27N 35°25' E 139°39'0 0.0
2017-Jun-17 21:01N 35°25' E 139°39'0 0.0
2017-Jun-17 20:27N 35°25' E 139°39'0 0.0
2017-Jun-17 20:00N 35°25' E 139°39'0 0.0
2017-Jun-17 19:27N 35°25' E 139°39'0 0.0
2017-Jun-17 18:57N 35°25' E 139°39'0 0.0
2017-Jun-17 18:26N 35°25' E 139°39'0 0.0
2017-Jun-17 17:57N 35°25' E 139°39'0 0.0
2017-Jun-17 17:25N 35°25' E 139°39'0 0.0
2017-Jun-17 16:57N 35°25' E 139°39'0 0.0
2017-Jun-17 16:27N 35°25' E 139°39'0 0.0
2017-Jun-17 15:56N 35°25' E 139°39'0 0.0
2017-Jun-17 15:27N 35°25' E 139°39'0 0.0
2017-Jun-17 14:56N 35°25' E 139°39'0 0.0
2017-Jun-17 14:27N 35°25' E 139°39'0 0.0
2017-Jun-17 13:27N 35°25' E 139°39'0 0.0
2017-Jun-17 12:57N 35°25' E 139°39'0 0.0
2017-Jun-17 12:27N 35°25' E 139°39'0 0.0
2017-Jun-17 11:55N 35°25' E 139°39'0 0.0
2017-Jun-17 11:26N 35°25' E 139°39'0 0.0
2017-Jun-17 10:57N 35°25' E 139°39'0 0.0
2017-Jun-17 10:30N 35°25' E 139°39'0 0.0
2017-Jun-17 09:57N 35°25' E 139°39'0 0.0
2017-Jun-17 09:30N 35°25' E 139°39'0 0.0
2017-Jun-17 08:57N 35°25' E 139°39'0 0.0
2017-Jun-17 08:27N 35°25' E 139°39'0 0.0
2017-Jun-17 08:01N 35°25' E 139°39'0 0.0
2017-Jun-17 07:27N 35°25' E 139°39'0 0.0
2017-Jun-17 07:00N 35°25' E 139°39'0 0.0
2017-Jun-17 06:30N 35°25' E 139°39'0 0.0
2017-Jun-17 05:56N 35°25' E 139°39'0 0.0
2017-Jun-17 05:26N 35°25' E 139°39'0 0.0
2017-Jun-17 05:00N 35°25' E 139°39'0 0.0
2017-Jun-17 04:26N 35°25' E 139°39'0 0.0
2017-Jun-17 04:00N 35°25' E 139°39'0 0.0
2017-Jun-17 03:25N 35°25' E 139°39'0 0.0
2017-Jun-17 02:58N 35°25' E 139°39'0 0.0
2017-Jun-17 02:28N 35°25' E 139°39'0 0.0
2017-Jun-17 01:57N 35°25' E 139°39'0 0.0
2017-Jun-17 01:31N 35°25' E 139°39'0 0.0
2017-Jun-17 00:57N 35°25' E 139°39'0 0.0
2017-Jun-17 00:27N 35°25' E 139°39'0 0.3
2017-Jun-17 00:00N 35°25' E 139°39'2 4.2
2017-Jun-16 23:30N 35°23' E 139°41'3 6.0
2017-Jun-16 23:00N 35°25' E 139°43'1 1.1
2017-Jun-16 22:30N 35°26' E 139°44'0 0.0
2017-Jun-16 21:54N 35°26' E 139°44'0 0.1
2017-Jun-16 21:30N 35°26' E 139°44'0 0.0
2017-Jun-16 21:00N 35°26' E 139°44'0 0.0
2017-Jun-16 20:30N 35°26' E 139°44'0 0.0
2017-Jun-16 20:00N 35°26' E 139°44'0 0.0
2017-Jun-16 19:28N 35°26' E 139°44'0 0.1
2017-Jun-16 19:00N 35°26' E 139°44'0 0.0
2017-Jun-16 18:30N 35°26' E 139°44'0 0.1
2017-Jun-16 18:00N 35°26' E 139°44'0 0.0
2017-Jun-16 17:30N 35°26' E 139°44'0 0.0
2017-Jun-16 17:00N 35°26' E 139°44'0 0.0
2017-Jun-16 16:24N 35°26' E 139°44'0 0.0
2017-Jun-16 16:00N 35°26' E 139°44'0 0.0
2017-Jun-16 15:30N 35°26' E 139°44'0 0.0
2017-Jun-16 15:00N 35°26' E 139°44'0 0.1
2017-Jun-16 14:00N 35°26' E 139°44'0 0.0
2017-Jun-16 13:30N 35°26' E 139°44'0 0.1
2017-Jun-16 13:00N 35°26' E 139°44'0 0.2
2017-Jun-16 12:30N 35°26' E 139°44'0 0.1
2017-Jun-16 12:00N 35°26' E 139°44'0 0.1
2017-Jun-16 11:30N 35°26' E 139°44'0 0.1
2017-Jun-16 11:00N 35°26' E 139°44'0 0.1
2017-Jun-16 10:30N 35°26' E 139°44'0 0.1
2017-Jun-16 10:00N 35°26' E 139°44'0 0.0
2017-Jun-16 09:30N 35°26' E 139°44'0 0.0
2017-Jun-16 09:00N 35°26' E 139°44'0 0.0
2017-Jun-16 08:30N 35°26' E 139°44'0 0.0
2017-Jun-16 08:00N 35°26' E 139°44'0 0.1
2017-Jun-16 07:30N 35°26' E 139°44'0 0.0
2017-Jun-16 07:00N 35°26' E 139°44'0 0.0
2017-Jun-16 06:30N 35°26' E 139°44'0 0.1
2017-Jun-16 06:00N 35°26' E 139°44'0 0.1
2017-Jun-16 05:30N 35°26' E 139°44'0 0.0
2017-Jun-16 05:00N 35°26' E 139°44'0 0.1
2017-Jun-16 04:28N 35°26' E 139°44'0 0.0
2017-Jun-16 04:00N 35°26' E 139°44'0 0.1
2017-Jun-16 03:30N 35°26' E 139°44'0 0.1
2017-Jun-16 02:55N 35°26' E 139°44'0 0.0
2017-Jun-16 02:28N 35°26' E 139°44'0 0.1
2017-Jun-16 01:58N 35°26' E 139°44'0 0.0
2017-Jun-16 01:25N 35°26' E 139°44'0 0.1
2017-Jun-16 00:55N 35°26' E 139°44'0 0.1
2017-Jun-16 00:31N 35°26' E 139°44'0 0.1
2017-Jun-16 00:01N 35°26' E 139°44'3 5.3
2017-Jun-15 23:30N 35°23' E 139°43'612.0
2017-Jun-15 23:01N 35°18' E 139°45'611.9
2017-Jun-15 22:31N 35°12' E 139°47'7 9.1
2017-Jun-15 21:44N 35°05' E 139°46'12 2.5
2017-Jun-15 16:48N 34°55' E 139°37'  
Track history (hours):
 
Tides and Currents Weather Stations Pressure Air Temp Water Temp Dewpoint Dewpoint Depression Visibility Wind Speed Wind Dir Waves Ship Positions

Port Stanley

Last reported at 2017-Jun-22 18:43 UTC. Time now 2017-Jun-28 07:16 UTC.
Position N 23°54' E 118°19'.

Length 183 m; draft 8.6 m.

Type: Ship. MMSI: 538090299.

Date/timePositionNaut miles runAvg speedWind from/ knotsBaromVisibWave heightAir tempDewpointWater temp
2017-Jun-22 18:43N 23°54' E 118°19'313.1
2017-Jun-22 18:30N 23°56' E 118°21'1413.1
2017-Jun-22 17:26N 24°05' E 118°33'613.5
2017-Jun-22 16:59N 24°09' E 118°38'1013.1
2017-Jun-22 16:14N 24°15' E 118°47'612.9
2017-Jun-22 15:47N 24°19' E 118°51'  
2017-Jun-18 01:37N 35°04' E 139°40'213.9
2017-Jun-18 01:29N 35°05' E 139°42'713.6
2017-Jun-18 01:00N 35°11' E 139°46'611.9
2017-Jun-18 00:31N 35°17' E 139°45'612.6
2017-Jun-18 00:01N 35°23' E 139°41'3 6.3
2017-Jun-17 23:31N 35°25' E 139°39'0 0.0
2017-Jun-17 22:57N 35°25' E 139°39'0 0.0
2017-Jun-17 22:27N 35°25' E 139°39'0 0.0
2017-Jun-17 21:56N 35°25' E 139°39'0 0.0
2017-Jun-17 21:27N 35°25' E 139°39'0 0.0
2017-Jun-17 21:01N 35°25' E 139°39'0 0.0
2017-Jun-17 20:27N 35°25' E 139°39'0 0.0
2017-Jun-17 20:00N 35°25' E 139°39'0 0.0
2017-Jun-17 19:27N 35°25' E 139°39'0 0.0
2017-Jun-17 18:57N 35°25' E 139°39'0 0.0
2017-Jun-17 18:26N 35°25' E 139°39'0 0.0
2017-Jun-17 17:57N 35°25' E 139°39'0 0.0
2017-Jun-17 17:25N 35°25' E 139°39'0 0.0
2017-Jun-17 16:57N 35°25' E 139°39'0 0.0
2017-Jun-17 16:27N 35°25' E 139°39'0 0.0
2017-Jun-17 15:56N 35°25' E 139°39'0 0.0
2017-Jun-17 15:27N 35°25' E 139°39'0 0.0
2017-Jun-17 14:56N 35°25' E 139°39'0 0.0
2017-Jun-17 14:27N 35°25' E 139°39'0 0.0
2017-Jun-17 13:27N 35°25' E 139°39'0 0.0
2017-Jun-17 12:57N 35°25' E 139°39'0 0.0
2017-Jun-17 12:27N 35°25' E 139°39'0 0.0
2017-Jun-17 11:55N 35°25' E 139°39'0 0.0
2017-Jun-17 11:26N 35°25' E 139°39'0 0.0
2017-Jun-17 10:57N 35°25' E 139°39'0 0.0
2017-Jun-17 10:30N 35°25' E 139°39'0 0.0
2017-Jun-17 09:57N 35°25' E 139°39'0 0.0
2017-Jun-17 09:30N 35°25' E 139°39'0 0.0
2017-Jun-17 08:57N 35°25' E 139°39'0 0.0
2017-Jun-17 08:27N 35°25' E 139°39'0 0.0
2017-Jun-17 08:01N 35°25' E 139°39'0 0.0
2017-Jun-17 07:27N 35°25' E 139°39'0 0.0
2017-Jun-17 07:00N 35°25' E 139°39'0 0.0
2017-Jun-17 06:30N 35°25' E 139°39'0 0.0
2017-Jun-17 05:56N 35°25' E 139°39'0 0.0
2017-Jun-17 05:26N 35°25' E 139°39'0 0.0
2017-Jun-17 05:00N 35°25' E 139°39'0 0.0
2017-Jun-17 04:26N 35°25' E 139°39'0 0.0
2017-Jun-17 04:00N 35°25' E 139°39'0 0.0
2017-Jun-17 03:25N 35°25' E 139°39'0 0.0
2017-Jun-17 02:58N 35°25' E 139°39'0 0.0
2017-Jun-17 02:28N 35°25' E 139°39'0 0.0
2017-Jun-17 01:57N 35°25' E 139°39'0 0.0
2017-Jun-17 01:31N 35°25' E 139°39'0 0.0
2017-Jun-17 00:57N 35°25' E 139°39'0 0.0
2017-Jun-17 00:27N 35°25' E 139°39'0 0.3
2017-Jun-17 00:00N 35°25' E 139°39'2 4.2
2017-Jun-16 23:30N 35°23' E 139°41'3 6.0
2017-Jun-16 23:00N 35°25' E 139°43'1 1.1
2017-Jun-16 22:30N 35°26' E 139°44'0 0.0
2017-Jun-16 21:54N 35°26' E 139°44'0 0.1
2017-Jun-16 21:30N 35°26' E 139°44'0 0.0
2017-Jun-16 21:00N 35°26' E 139°44'0 0.0
2017-Jun-16 20:30N 35°26' E 139°44'0 0.0
2017-Jun-16 20:00N 35°26' E 139°44'0 0.0
2017-Jun-16 19:28N 35°26' E 139°44'0 0.1
2017-Jun-16 19:00N 35°26' E 139°44'0 0.0
2017-Jun-16 18:30N 35°26' E 139°44'0 0.1
2017-Jun-16 18:00N 35°26' E 139°44'0 0.0
2017-Jun-16 17:30N 35°26' E 139°44'0 0.0
2017-Jun-16 17:00N 35°26' E 139°44'0 0.0
2017-Jun-16 16:24N 35°26' E 139°44'0 0.0
2017-Jun-16 16:00N 35°26' E 139°44'0 0.0
2017-Jun-16 15:30N 35°26' E 139°44'0 0.0
2017-Jun-16 15:00N 35°26' E 139°44'0 0.1
2017-Jun-16 14:00N 35°26' E 139°44'0 0.0
2017-Jun-16 13:30N 35°26' E 139°44'0 0.1
2017-Jun-16 13:00N 35°26' E 139°44'0 0.2
2017-Jun-16 12:30N 35°26' E 139°44'0 0.1
2017-Jun-16 12:00N 35°26' E 139°44'0 0.1
2017-Jun-16 11:30N 35°26' E 139°44'0 0.1
2017-Jun-16 11:00N 35°26' E 139°44'0 0.1
2017-Jun-16 10:30N 35°26' E 139°44'0 0.1
2017-Jun-16 10:00N 35°26' E 139°44'0 0.0
2017-Jun-16 09:30N 35°26' E 139°44'0 0.0
2017-Jun-16 09:00N 35°26' E 139°44'0 0.0
2017-Jun-16 08:30N 35°26' E 139°44'0 0.0
2017-Jun-16 08:00N 35°26' E 139°44'0 0.1
2017-Jun-16 07:30N 35°26' E 139°44'0 0.0
2017-Jun-16 07:00N 35°26' E 139°44'0 0.0
2017-Jun-16 06:30N 35°26' E 139°44'0 0.1
2017-Jun-16 06:00N 35°26' E 139°44'0 0.1
2017-Jun-16 05:30N 35°26' E 139°44'0 0.0
2017-Jun-16 05:00N 35°26' E 139°44'0 0.1
2017-Jun-16 04:28N 35°26' E 139°44'0 0.0
2017-Jun-16 04:00N 35°26' E 139°44'0 0.1
2017-Jun-16 03:30N 35°26' E 139°44'0 0.1
2017-Jun-16 02:55N 35°26' E 139°44'0 0.0
2017-Jun-16 02:28N 35°26' E 139°44'0 0.1
2017-Jun-16 01:58N 35°26' E 139°44'0 0.0
2017-Jun-16 01:25N 35°26' E 139°44'0 0.1
2017-Jun-16 00:55N 35°26' E 139°44'0 0.1
2017-Jun-16 00:31N 35°26' E 139°44'0 0.1
2017-Jun-16 00:01N 35°26' E 139°44'3 5.3
2017-Jun-15 23:30N 35°23' E 139°43'612.0
2017-Jun-15 23:01N 35°18' E 139°45'611.9
2017-Jun-15 22:31N 35°12' E 139°47'7 9.1
2017-Jun-15 21:44N 35°05' E 139°46'12 2.5
2017-Jun-15 16:48N 34°55' E 139°37'  

Dump ship's entire track history